Dennis, MA

8:16 AM EDT on October 01, 2014 (GMT -0400)
Scargo Hill Dennis MA | Change Station
CLOSE
Current Station
Personal Weather Station
Location: Dennis, MA
Elevation: 133 ft
Nearby Weather Stations

Elev 133 ft 41.74 °N, 70.18 °W | Updated 1 second ago

Rain
Rain
61.5 °F
Feels Like 61.5 °F
N
0.7
Wind Variable Wind from North
Gusts 3.8 mph

Today
High -- | Low -- °F
--% Chance of Precip.
Yesterday
High -- | Low -- °F
Precip. -- in
6:37 AM 6:22 PM
Waxing Crescent, 47% visible
Pressure 29.98 in
Visibility 8.0 miles
Clouds Overcast 500 ft
Dew Point 61 °F
Humidity 99%
Rainfall 0.07 in
Snow Depth Not available.
UV 0 out of 12
Pollen .40 out of 12
Ozone Good
Flu Activity Not available.
METAR KHYA 011056Z 03008G16KT 8SM -RA OVC005 17/16 A2997 RMK AO2 SLP150 P0003 T01720161 $

More Conditions Fewer Conditions

Pressure 29.98 in
Visibility 8.0 miles
Clouds Overcast 500 ft
Dew Point 61 °F
Humidity 99%
Rainfall 0.07 in
Snow Depth Not available.
UV 0 out of 12
Pollen .40 out of 12
Ozone Good
Flu Activity Not available.
METAR KHYA 011056Z 03008G16KT 8SM -RA OVC005 17/16 A2997 RMK AO2 SLP150 P0003 T01720161 $

More Conditions Fewer Conditions

10-Day Weather Forecast

Almanac

Astronomy

Oct. 01, 2014 Rise Set
Actual Time 6:37 AM EDT 6:22 PM EDT
Civil Twilight 6:09 AM EDT 6:50 PM EDT
Nautical Twilight 5:37 AM EDT 7:22 PM EDT
Astronomical Twilight 5:04 AM EDT 7:54 PM EDT
Moon 1:39 PM EDT 11:47 PM EDT
Length of Visible Light 12h 40m
Length of Day
11h 44m
Tomorrow will be 2m 45s shorter.
Waxing Crescent, 47% of the Moon is Illuminated
Today
Waxing Crescent
Oct 1
First Quarter
Oct 8
Full
Oct 15
Last Quarter
Oct 23
New

Today's Extremes

State Highs State Lows

Community

WunderPhotos

Upload Photos

1,757,914 photos uploaded!

Nearby

Air Quality

  Air Quality AQ Index Pollutant
Yesterday Good
OZONE
Current Good
OZONE
Wednesday Good
PM2.5
Wednesday Good
OZONE

Snow Depth

Station Depth Elevation
No new snow has been reported.

Earthquake Activity

City Distance Mag. Time & Date
No recent earthquake activity has been reported nearby.
Minimum magnitude displayed is 2.5.

Coastal Water Temperatures

Place Temperature
Woods Hole, MA 66.9 °F
Nantucket Island, MA 66.0 °F
Boston, MA 63.0 °F
Fall River, MA 66.9 °F

Nearby Weather Stations